createdAt,value
2019-02-14T00:00:06.986Z,62.35
2019-02-14T00:01:06.971Z,62.56
2019-02-14T00:02:06.942Z,62.15
2019-02-14T00:03:06.939Z,62.66
2019-02-14T00:04:06.910Z,61.02
2019-02-14T00:05:06.903Z,61.33
2019-02-14T00:07:05.872Z,60.47
2019-02-14T00:08:06.864Z,61.12
2019-02-14T00:09:06.864Z,60.30
2019-02-14T00:10:06.841Z,60.19
2019-02-14T00:12:05.901Z,60.19
2019-02-14T00:13:06.815Z,60.61
2019-02-14T00:14:09.345Z,60.19
2019-02-14T00:15:06.796Z,60.50
2019-02-14T00:16:10.853Z,59.89
2019-02-14T00:17:06.776Z,60.30
2019-02-14T00:18:06.752Z,60.40
2019-02-14T00:19:06.740Z,59.37
2019-02-14T00:20:06.728Z,59.78
2019-02-14T00:21:09.343Z,59.78
2019-02-14T00:23:05.702Z,59.78
2019-02-14T00:24:06.714Z,59.27
2019-02-14T00:25:06.681Z,59.89
2019-02-14T00:26:09.332Z,60.19
2019-02-14T00:27:06.679Z,59.27
2019-02-14T00:28:06.654Z,60.22
2019-02-14T00:29:06.640Z,59.70
2019-02-14T00:30:06.628Z,60.12
2019-02-14T00:31:06.610Z,60.02
2019-02-14T00:32:06.635Z,59.68
2019-02-14T00:33:06.620Z,60.22
2019-02-14T00:34:06.590Z,59.81
2019-02-14T00:35:06.574Z,60.12
2019-02-14T00:36:06.696Z,59.81
2019-02-14T00:37:06.556Z,60.12
2019-02-14T00:38:06.544Z,60.33
2019-02-14T00:39:06.530Z,60.02
2019-02-14T00:40:06.514Z,59.81
2019-02-14T00:41:06.519Z,60.02
2019-02-14T00:42:06.499Z,60.63
2019-02-14T00:43:06.478Z,60.22
2019-02-14T00:44:06.474Z,59.47
2019-02-14T00:45:06.462Z,59.78
2019-02-14T00:46:09.330Z,61.46
2019-02-14T00:47:06.496Z,60.19
2019-02-14T00:48:06.424Z,60.09
2019-02-14T00:49:06.416Z,60.40
2019-02-14T00:50:06.406Z,60.81
2019-02-14T00:51:06.398Z,60.81
2019-02-14T00:52:06.387Z,60.50
2019-02-14T00:53:06.378Z,61.22
2019-02-14T00:54:06.368Z,61.53
2019-02-14T00:55:06.355Z,61.63
2019-02-14T00:56:06.350Z,60.19
2019-02-14T00:57:06.350Z,60.19
2019-02-14T00:58:06.320Z,60.30
2019-02-14T00:59:06.348Z,60.61
2019-02-14T01:00:06.295Z,59.37
2019-02-14T01:01:06.296Z,60.09
2019-02-14T01:02:06.274Z,60.81
2019-02-14T01:03:06.266Z,61.33
2019-02-14T01:04:06.278Z,61.84
2019-02-14T01:05:06.246Z,61.22
2019-02-14T01:06:06.235Z,61.25
2019-02-14T01:07:08.824Z,60.50
2019-02-14T01:08:06.207Z,61.33
2019-02-14T01:09:06.224Z,61.53
2019-02-14T01:10:06.190Z,60.81
2019-02-14T01:11:08.823Z,61.02
2019-02-14T01:12:06.172Z,61.22
2019-02-14T01:13:06.158Z,59.99
2019-02-14T01:14:06.190Z,60.61
2019-02-14T01:15:06.134Z,60.81
2019-02-14T01:17:05.153Z,60.89
2019-02-14T01:18:06.102Z,60.27
2019-02-14T01:19:06.096Z,59.78
2019-02-14T01:20:06.106Z,58.65
2019-02-14T01:21:06.076Z,59.17
2019-02-14T01:22:06.062Z,58.54
2019-02-14T01:23:06.824Z,59.27
2019-02-14T01:24:06.046Z,59.17
2019-02-14T01:25:06.030Z,59.78
2019-02-14T01:26:06.022Z,59.37
2019-02-14T01:27:06.010Z,60.40
2019-02-14T01:28:05.998Z,59.89
2019-02-14T01:29:06.023Z,59.06
2019-02-14T01:30:05.988Z,59.06
2019-02-14T01:31:05.970Z,59.47
2019-02-14T01:32:05.958Z,59.17
2019-02-14T01:33:05.957Z,59.58
2019-02-14T01:34:05.935Z,59.17
2019-02-14T01:35:05.948Z,59.06
2019-02-14T01:36:05.902Z,58.96
2019-02-14T01:37:05.901Z,59.27
2019-02-14T01:38:05.886Z,59.68
2019-02-14T01:39:05.912Z,60.19
2019-02-14T01:40:05.862Z,60.61
2019-02-14T01:41:05.850Z,60.19
2019-02-14T01:42:05.846Z,60.61
2019-02-14T01:43:05.831Z,59.68
2019-02-14T01:44:05.874Z,59.06
2019-02-14T01:45:05.810Z,59.47
2019-02-14T01:46:05.796Z,60.61
2019-02-14T01:47:05.792Z,60.40
2019-02-14T01:48:05.783Z,60.71
2019-02-14T01:49:05.776Z,60.81
2019-02-14T01:50:05.778Z,60.40
2019-02-14T01:51:05.742Z,59.99
2019-02-14T01:52:05.730Z,58.65
2019-02-14T01:53:08.317Z,58.14
2019-02-14T01:54:05.708Z,58.34
2019-02-14T01:55:05.734Z,58.75
2019-02-14T01:56:05.692Z,57.73
2019-02-14T01:58:04.698Z,57.01
2019-02-14T01:59:05.658Z,57.31
2019-02-14T02:00:05.640Z,58.14
2019-02-14T02:01:05.631Z,58.45
2019-02-14T02:02:05.638Z,58.24
2019-02-14T02:03:05.649Z,57.62
2019-02-14T02:04:05.601Z,57.52
2019-02-14T02:05:05.595Z,57.73
2019-02-14T02:06:05.583Z,58.14
2019-02-14T02:07:05.576Z,58.65
2019-02-14T02:08:05.558Z,58.24
2019-02-14T02:09:05.586Z,58.34
2019-02-14T02:10:05.546Z,58.45
2019-02-14T02:11:05.530Z,57.93
2019-02-14T02:12:05.514Z,58.54
2019-02-14T02:13:05.502Z,58.65
2019-02-14T02:14:05.538Z,58.86
2019-02-14T02:15:05.485Z,58.34
2019-02-14T02:16:06.302Z,57.52
2019-02-14T02:17:05.492Z,57.29
2019-02-14T02:18:05.457Z,57.50
2019-02-14T02:19:05.436Z,57.73
2019-02-14T02:20:05.424Z,57.42
2019-02-14T02:21:05.419Z,58.24
2019-02-14T02:22:05.440Z,56.98
2019-02-14T02:23:05.394Z,58.14
2019-02-14T02:24:05.399Z,57.82
2019-02-14T02:25:05.368Z,56.98
2019-02-14T02:26:05.358Z,57.29
2019-02-14T02:27:05.387Z,57.42
2019-02-14T02:28:05.350Z,57.93
2019-02-14T02:29:05.339Z,57.82
2019-02-14T02:30:05.319Z,57.82
2019-02-14T02:31:05.307Z,57.01
2019-02-14T02:32:05.294Z,57.21
2019-02-14T02:33:05.292Z,57.42
2019-02-14T02:34:05.313Z,57.21
2019-02-14T02:35:05.270Z,57.01
2019-02-14T02:36:05.257Z,56.80
2019-02-14T02:37:05.254Z,57.21
2019-02-14T02:38:05.236Z,56.93
2019-02-14T02:39:05.226Z,57.21
2019-02-14T02:40:05.220Z,57.73
2019-02-14T02:41:05.202Z,57.24
2019-02-14T02:42:05.192Z,57.31
2019-02-14T02:43:05.188Z,57.03
2019-02-14T02:44:05.194Z,57.14
2019-02-14T02:45:05.160Z,57.21
2019-02-14T02:46:07.808Z,56.82
2019-02-14T02:47:05.216Z,56.82
2019-02-14T02:48:05.121Z,57.14
2019-02-14T02:49:07.803Z,57.54
2019-02-14T02:50:05.107Z,57.01
2019-02-14T02:52:04.092Z,57.14
2019-02-14T02:53:05.849Z,57.54
2019-02-14T02:54:05.094Z,57.14
2019-02-14T02:55:05.041Z,57.03
2019-02-14T02:56:05.041Z,56.82
2019-02-14T02:57:05.026Z,56.93
2019-02-14T02:58:05.021Z,57.24
2019-02-14T02:59:05.005Z,56.70
2019-02-14T03:00:05.029Z,56.72
2019-02-14T03:01:04.989Z,57.24
2019-02-14T03:02:04.967Z,57.14
2019-02-14T03:03:05.008Z,57.03
2019-02-14T03:04:04.960Z,57.34
2019-02-14T03:05:04.949Z,57.24
2019-02-14T03:06:10.609Z,57.14
2019-02-14T03:07:04.947Z,57.34
2019-02-14T03:08:04.921Z,57.34
2019-02-14T03:09:04.893Z,57.31
2019-02-14T03:10:04.895Z,57.24
2019-02-14T03:11:04.872Z,56.41
2019-02-14T03:12:04.865Z,56.10
2019-02-14T03:13:04.898Z,56.18
2019-02-14T03:14:04.846Z,57.03
2019-02-14T03:15:05.837Z,57.24
2019-02-14T03:16:04.818Z,57.21
2019-02-14T03:17:04.811Z,57.52
2019-02-14T03:18:04.802Z,57.24
2019-02-14T03:19:04.784Z,58.14
2019-02-14T03:20:04.785Z,58.24
2019-02-14T03:21:04.780Z,57.62
2019-02-14T03:22:04.756Z,57.73
2019-02-14T03:23:04.745Z,58.24
2019-02-14T03:24:04.735Z,57.21
2019-02-14T03:25:04.735Z,57.21
2019-02-14T03:26:04.722Z,57.52
2019-02-14T03:27:04.703Z,57.50
2019-02-14T03:28:04.691Z,57.50
2019-02-14T03:29:04.689Z,57.31
2019-02-14T03:30:04.675Z,57.31
2019-02-14T03:31:04.663Z,57.42
2019-02-14T03:32:04.654Z,58.34
2019-02-14T03:33:04.667Z,57.42
2019-02-14T03:34:04.639Z,57.52
2019-02-14T03:35:04.659Z,57.21
2019-02-14T03:36:04.597Z,57.21
2019-02-14T03:37:04.589Z,57.31
2019-02-14T03:38:04.635Z,57.52
2019-02-14T03:39:04.574Z,56.38
2019-02-14T03:40:04.553Z,55.98
2019-02-14T03:41:04.552Z,57.42
2019-02-14T03:42:04.541Z,56.90
2019-02-14T03:43:04.525Z,57.03
2019-02-14T03:44:04.539Z,56.62
2019-02-14T03:45:04.534Z,57.24
2019-02-14T03:46:04.493Z,57.52
2019-02-14T03:47:04.479Z,57.24
2019-02-14T03:48:07.277Z,57.42
2019-02-14T03:49:04.462Z,56.82
2019-02-14T03:50:04.498Z,55.80
2019-02-14T03:51:04.455Z,55.69
2019-02-14T03:53:03.423Z,57.03
2019-02-14T03:54:04.417Z,57.03
2019-02-14T03:55:04.431Z,56.21
2019-02-14T03:56:04.393Z,55.38
2019-02-14T03:57:04.382Z,56.34
2019-02-14T03:58:04.366Z,56.44
2019-02-14T03:59:04.357Z,56.34
2019-02-14T04:00:04.378Z,56.52
2019-02-14T04:01:04.331Z,56.00
2019-02-14T04:02:04.317Z,55.82
2019-02-14T04:03:07.279Z,55.51
2019-02-14T04:04:06.785Z,56.54
2019-02-14T04:06:03.319Z,57.16
2019-02-14T04:07:04.269Z,55.62
2019-02-14T04:08:04.275Z,55.72
2019-02-14T04:09:04.249Z,55.82
2019-02-14T04:10:04.235Z,55.93
2019-02-14T04:11:04.235Z,55.30
2019-02-14T04:12:04.333Z,55.72
2019-02-14T04:13:04.197Z,56.23
2019-02-14T04:14:04.197Z,55.21
2019-02-14T04:15:04.181Z,54.48
2019-02-14T04:16:04.575Z,54.90
2019-02-14T04:17:04.161Z,55.93
2019-02-14T04:18:04.155Z,56.16
2019-02-14T04:19:04.145Z,56.46
2019-02-14T04:20:04.339Z,57.18
2019-02-14T04:21:04.116Z,56.67
2019-02-14T04:22:04.115Z,57.18
2019-02-14T04:23:04.099Z,56.77
2019-02-14T04:24:04.080Z,56.57
2019-02-14T04:25:04.079Z,55.82
2019-02-14T04:26:04.089Z,56.65
2019-02-14T04:27:04.049Z,56.54
2019-02-14T04:28:04.046Z,56.44
2019-02-14T04:29:04.031Z,56.75
2019-02-14T04:30:04.055Z,56.75
2019-02-14T04:31:04.019Z,54.79
2019-02-14T04:32:03.996Z,55.43
2019-02-14T04:33:03.985Z,54.71
2019-02-14T04:34:03.973Z,56.46
2019-02-14T04:35:03.963Z,57.18
2019-02-14T04:36:04.010Z,57.29
2019-02-14T04:37:03.942Z,57.39
2019-02-14T04:38:03.934Z,57.50
2019-02-14T04:39:03.920Z,57.60
2019-02-14T04:40:03.907Z,57.18
2019-02-14T04:41:03.893Z,57.60
2019-02-14T04:42:03.919Z,58.11
2019-02-14T04:43:03.877Z,57.70
2019-02-14T04:44:03.869Z,56.77
2019-02-14T04:45:03.871Z,56.57
2019-02-14T04:46:03.853Z,56.26
2019-02-14T04:48:02.829Z,57.18
2019-02-14T04:49:03.813Z,56.98
2019-02-14T04:50:03.821Z,57.29
2019-02-14T04:51:03.791Z,57.39
2019-02-14T04:52:03.800Z,58.01
2019-02-14T04:53:03.773Z,57.60
2019-02-14T04:54:03.755Z,57.70
2019-02-14T04:55:04.272Z,57.09
2019-02-14T04:56:03.749Z,57.29
2019-02-14T04:57:03.723Z,57.29
2019-02-14T04:58:03.724Z,57.39
2019-02-14T04:59:03.707Z,58.01
2019-02-14T05:00:03.695Z,57.81
2019-02-14T05:01:03.679Z,57.60
2019-02-14T05:02:03.678Z,57.60
2019-02-14T05:03:03.667Z,57.29
2019-02-14T05:04:03.656Z,56.46
2019-02-14T05:05:03.639Z,56.46
2019-02-14T05:07:05.259Z,56.90
2019-02-14T05:08:03.667Z,56.59
2019-02-14T05:09:03.600Z,56.26
2019-02-14T05:10:03.583Z,55.64
2019-02-14T05:11:03.581Z,55.66
2019-02-14T05:12:03.599Z,55.77
2019-02-14T05:13:03.575Z,55.57
2019-02-14T05:14:03.547Z,56.49
2019-02-14T05:15:03.548Z,57.32
2019-02-14T05:16:03.521Z,57.52
2019-02-14T05:17:03.511Z,56.29
2019-02-14T05:18:03.547Z,55.57
2019-02-14T05:19:03.492Z,56.59
2019-02-14T05:20:03.479Z,57.21
2019-02-14T05:21:03.469Z,57.32
2019-02-14T05:22:03.463Z,56.90
2019-02-14T05:23:03.439Z,56.29
2019-02-14T05:24:03.435Z,57.86
2019-02-14T05:25:03.432Z,57.45
2019-02-14T05:26:03.414Z,57.86
2019-02-14T05:27:03.399Z,57.24
2019-02-14T05:29:02.385Z,56.49
2019-02-14T05:30:03.375Z,56.41
2019-02-14T05:31:03.397Z,55.57
2019-02-14T05:32:03.345Z,55.80
2019-02-14T05:33:03.337Z,55.69
2019-02-14T05:34:03.331Z,55.49
2019-02-14T05:35:03.320Z,56.10
2019-02-14T05:36:04.321Z,55.69
2019-02-14T05:37:03.302Z,55.69
2019-02-14T05:38:03.288Z,55.98
2019-02-14T05:39:03.269Z,55.69
2019-02-14T05:40:03.793Z,55.80
2019-02-14T05:42:02.241Z,55.66
2019-02-14T05:43:03.219Z,55.80
2019-02-14T05:44:03.217Z,55.69
2019-02-14T05:45:03.203Z,55.69
2019-02-14T05:46:03.228Z,56.00
2019-02-14T05:47:03.179Z,55.59
2019-02-14T05:48:03.167Z,55.77
2019-02-14T05:49:03.169Z,56.10
2019-02-14T05:50:03.750Z,56.00
2019-02-14T05:51:03.154Z,55.90
2019-02-14T05:52:03.123Z,56.62
2019-02-14T05:53:03.749Z,56.52
2019-02-14T05:54:03.109Z,55.80
2019-02-14T05:55:03.121Z,55.90
2019-02-14T05:56:03.085Z,56.62
2019-02-14T05:57:03.078Z,56.41
2019-02-14T05:58:03.744Z,56.31
2019-02-14T05:59:03.050Z,56.21
2019-02-14T06:00:03.787Z,55.59
2019-02-14T06:01:03.023Z,55.69
2019-02-14T06:02:03.020Z,55.69
2019-02-14T06:03:03.014Z,56.52
2019-02-14T06:04:03.009Z,56.83
2019-02-14T06:05:02.989Z,56.52
2019-02-14T06:06:02.975Z,56.00
2019-02-14T06:07:02.964Z,56.21
2019-02-14T06:08:04.793Z,56.21
2019-02-14T06:09:02.943Z,55.69
2019-02-14T06:10:02.945Z,55.69
2019-02-14T06:11:02.917Z,56.00
2019-02-14T06:12:03.740Z,55.80
2019-02-14T06:13:02.904Z,56.10
2019-02-14T06:14:02.888Z,55.72
2019-02-14T06:15:02.885Z,56.03
2019-02-14T06:16:02.899Z,56.03
2019-02-14T06:17:02.859Z,55.59
2019-02-14T06:18:02.845Z,56.03
2019-02-14T06:19:02.824Z,55.62
2019-02-14T06:20:02.823Z,55.41
2019-02-14T06:21:02.814Z,56.00
2019-02-14T06:22:02.840Z,54.86
2019-02-14T06:23:02.796Z,54.77
2019-02-14T06:24:02.789Z,54.46
2019-02-14T06:25:02.763Z,54.46
2019-02-14T06:26:02.762Z,54.56
2019-02-14T06:27:02.751Z,54.46
2019-02-14T06:28:04.289Z,54.48
2019-02-14T06:29:02.714Z,54.90
2019-02-14T06:30:02.744Z,54.90
2019-02-14T06:31:02.700Z,54.79
2019-02-14T06:32:02.690Z,54.86
2019-02-14T06:33:02.680Z,56.03
2019-02-14T06:34:02.675Z,56.00
2019-02-14T06:35:02.701Z,56.34
2019-02-14T06:36:02.676Z,56.34
2019-02-14T06:37:09.503Z,55.72
2019-02-14T06:38:04.275Z,55.62
2019-02-14T06:39:02.608Z,55.30
2019-02-14T06:40:02.601Z,54.79
2019-02-14T06:41:03.659Z,55.93
2019-02-14T06:42:02.618Z,55.10
2019-02-14T06:43:02.569Z,54.79
2019-02-14T06:44:02.559Z,54.77
2019-02-14T06:45:02.552Z,54.66
2019-02-14T06:46:02.576Z,54.69
2019-02-14T06:47:02.535Z,54.58
2019-02-14T06:48:02.548Z,54.48
2019-02-14T06:49:02.499Z,54.79
2019-02-14T06:50:02.491Z,55.10
2019-02-14T06:51:02.482Z,54.48
2019-02-14T06:52:02.476Z,54.06
2019-02-14T06:53:02.528Z,53.24
2019-02-14T06:55:01.442Z,53.24
2019-02-14T06:56:02.420Z,53.66
2019-02-14T06:57:02.419Z,54.19
2019-02-14T06:58:02.407Z,53.24
2019-02-14T06:59:02.492Z,54.19
2019-02-14T07:00:02.384Z,54.17
2019-02-14T07:01:02.416Z,54.40
2019-02-14T07:02:02.367Z,53.03
2019-02-14T07:03:02.354Z,52.55
2019-02-14T07:04:02.358Z,52.23
2019-02-14T07:05:02.361Z,52.86
2019-02-14T07:06:02.330Z,53.27
2019-02-14T07:08:01.299Z,52.03
2019-02-14T07:09:02.802Z,51.82
2019-02-14T07:10:02.274Z,52.44
2019-02-14T07:11:02.268Z,51.41
2019-02-14T07:12:02.722Z,53.16
2019-02-14T07:13:02.718Z,52.34
2019-02-14T07:14:02.254Z,52.55
2019-02-14T07:15:02.220Z,51.92
2019-02-14T07:16:02.241Z,51.72
2019-02-14T07:17:04.716Z,51.92
2019-02-14T07:18:02.201Z,52.36
2019-02-14T07:19:02.174Z,52.88
2019-02-14T07:20:02.166Z,52.75
2019-02-14T07:21:02.200Z,51.92
2019-02-14T07:22:02.154Z,51.92
2019-02-14T07:23:02.128Z,52.55
2019-02-14T07:24:02.124Z,52.34
2019-02-14T07:25:02.110Z,52.23
2019-02-14T07:26:02.134Z,52.42
2019-02-14T07:27:02.092Z,52.86
2019-02-14T07:28:02.077Z,51.49
2019-02-14T07:29:02.071Z,52.42
2019-02-14T07:30:02.051Z,53.03
2019-02-14T07:31:02.112Z,51.70
2019-02-14T07:32:02.036Z,52.83
2019-02-14T07:33:04.712Z,52.52
2019-02-14T07:34:02.012Z,51.79
2019-02-14T07:35:02.010Z,52.19
2019-02-14T07:37:01.027Z,51.87
2019-02-14T07:38:01.968Z,52.00
2019-02-14T07:39:01.958Z,52.31
2019-02-14T07:40:01.988Z,52.19
2019-02-14T07:41:01.932Z,51.87
2019-02-14T07:42:01.950Z,51.98
2019-02-14T07:43:01.917Z,51.46
2019-02-14T07:44:01.900Z,51.46
2019-02-14T07:45:01.907Z,51.87
2019-02-14T07:46:02.755Z,52.19
2019-02-14T07:47:01.890Z,51.44
2019-02-14T07:48:01.868Z,51.65
2019-02-14T07:49:01.851Z,51.23
2019-02-14T07:50:01.836Z,51.65
2019-02-14T07:51:01.876Z,51.95
2019-02-14T07:52:01.822Z,51.95
2019-02-14T07:53:01.806Z,51.85
2019-02-14T07:54:01.793Z,51.65
2019-02-14T07:55:04.744Z,52.14
2019-02-14T07:56:01.811Z,51.23
2019-02-14T07:57:01.766Z,52.06
2019-02-14T07:58:01.765Z,52.06
2019-02-14T07:59:01.746Z,51.65
2019-02-14T08:00:01.737Z,52.03
2019-02-14T08:01:01.790Z,51.95
2019-02-14T08:02:01.701Z,51.23
2019-02-14T08:03:01.692Z,51.52
2019-02-14T08:04:01.693Z,51.62
2019-02-14T08:05:01.676Z,50.82
2019-02-14T08:06:01.672Z,50.82
2019-02-14T08:07:01.685Z,50.59
2019-02-14T08:08:01.643Z,51.03
2019-02-14T08:09:01.633Z,50.70
2019-02-14T08:10:01.660Z,50.38
2019-02-14T08:11:01.614Z,50.20
2019-02-14T08:12:01.650Z,51.00
2019-02-14T08:13:01.592Z,50.80
2019-02-14T08:14:01.587Z,51.10
2019-02-14T08:15:02.198Z,51.10
2019-02-14T08:16:01.559Z,50.90
2019-02-14T08:17:01.549Z,50.18
2019-02-14T08:18:01.596Z,50.80
2019-02-14T08:19:01.532Z,50.80
2019-02-14T08:20:01.527Z,49.98
2019-02-14T08:21:01.496Z,50.28
2019-02-14T08:22:01.488Z,49.98
2019-02-14T08:23:01.482Z,50.16
2019-02-14T08:24:01.501Z,50.46
2019-02-14T08:25:01.455Z,49.95
2019-02-14T08:26:10.406Z,49.85
2019-02-14T08:27:01.439Z,50.59
2019-02-14T08:28:01.790Z,50.16
2019-02-14T08:29:01.413Z,49.95
2019-02-14T08:30:01.419Z,49.85
2019-02-14T08:31:01.402Z,49.54
2019-02-14T08:32:01.380Z,49.54
2019-02-14T08:33:01.415Z,50.26
2019-02-14T08:34:01.394Z,50.26
2019-02-14T08:35:01.352Z,49.54
2019-02-14T08:36:01.342Z,48.82
2019-02-14T08:37:01.332Z,48.92
2019-02-14T08:38:01.322Z,49.64
2019-02-14T08:39:01.385Z,49.95
2019-02-14T08:40:01.314Z,49.02
2019-02-14T08:41:01.290Z,49.02
2019-02-14T08:42:01.270Z,49.33
2019-02-14T08:43:01.284Z,48.92
2019-02-14T08:44:01.250Z,48.51
2019-02-14T08:45:01.306Z,47.79
2019-02-14T08:46:01.242Z,48.18
2019-02-14T08:47:01.222Z,49.21
2019-02-14T08:48:01.224Z,49.23
2019-02-14T08:49:01.203Z,48.90
2019-02-14T08:50:01.194Z,49.13
2019-02-14T08:51:01.205Z,48.51
2019-02-14T08:52:01.172Z,48.61
2019-02-14T08:53:01.155Z,49.02
2019-02-14T08:54:01.146Z,49.54
2019-02-14T08:55:01.137Z,48.49
2019-02-14T08:56:01.155Z,48.61
2019-02-14T08:57:01.102Z,48.92
2019-02-14T08:58:01.091Z,49.13
2019-02-14T08:59:01.096Z,48.61
2019-02-14T09:00:01.073Z,48.69
2019-02-14T09:01:01.097Z,48.82
2019-02-14T09:02:01.058Z,49.44
2019-02-14T09:03:01.046Z,49.95
2019-02-14T09:04:01.036Z,49.54
2019-02-14T09:05:01.032Z,49.44
2019-02-14T09:06:01.070Z,49.64
2019-02-14T09:07:01.001Z,48.82
2019-02-14T09:08:01.006Z,48.82
2019-02-14T09:09:00.991Z,49.64
2019-02-14T09:10:00.970Z,49.23
2019-02-14T09:11:01.007Z,48.82
2019-02-14T09:12:00.950Z,49.23
2019-02-14T09:13:00.946Z,48.92
2019-02-14T09:14:00.946Z,47.99
2019-02-14T09:15:00.929Z,48.51
2019-02-14T09:16:00.997Z,49.33
2019-02-14T09:17:00.899Z,49.10
2019-02-14T09:18:00.879Z,48.92
2019-02-14T09:19:00.877Z,48.59
2019-02-14T09:20:00.874Z,48.51
2019-02-14T09:21:00.852Z,48.41
2019-02-14T09:22:00.874Z,48.71
2019-02-14T09:23:00.833Z,48.61
2019-02-14T09:24:00.815Z,48.82
2019-02-14T09:25:00.815Z,49.33
2019-02-14T09:26:02.375Z,49.44
2019-02-14T09:27:00.894Z,49.54
2019-02-14T09:28:00.775Z,48.69
2019-02-14T09:29:00.760Z,48.71
2019-02-14T09:30:03.677Z,49.02
2019-02-14T09:31:00.741Z,48.49
2019-02-14T09:32:00.737Z,48.92
2019-02-14T09:33:00.761Z,49.95
2019-02-14T09:34:00.708Z,48.41
2019-02-14T09:35:00.707Z,49.31
2019-02-14T09:36:00.724Z,48.61
2019-02-14T09:37:00.680Z,49.72
2019-02-14T09:38:03.279Z,49.95
2019-02-14T09:39:00.660Z,50.05
2019-02-14T09:40:00.648Z,50.34
2019-02-14T09:41:00.688Z,50.36
2019-02-14T09:42:00.616Z,50.05
2019-02-14T09:43:00.623Z,50.13
2019-02-14T09:44:00.622Z,50.36
2019-02-14T09:45:00.596Z,50.24
2019-02-14T09:46:00.584Z,49.82
2019-02-14T09:47:00.600Z,50.03
2019-02-14T09:48:00.563Z,50.24
2019-02-14T09:49:00.552Z,50.34
2019-02-14T09:50:00.550Z,50.03
2019-02-14T09:51:00.586Z,50.85
2019-02-14T09:52:00.552Z,50.11
2019-02-14T09:53:00.505Z,49.80
2019-02-14T09:54:00.520Z,49.90
2019-02-14T09:55:00.490Z,50.32
2019-02-14T09:56:00.481Z,50.01
2019-02-14T09:57:00.500Z,50.42
2019-02-14T09:58:00.469Z,50.62
2019-02-14T09:59:00.457Z,50.52
2019-02-14T10:00:00.448Z,50.01
2019-02-14T10:01:00.717Z,50.73
2019-02-14T10:02:00.469Z,50.83
2019-02-14T10:03:00.390Z,51.14
2019-02-14T10:04:00.389Z,51.14
2019-02-14T10:05:00.425Z,51.04
2019-02-14T10:06:00.391Z,51.14
2019-02-14T10:07:00.413Z,51.24
2019-02-14T10:08:00.378Z,50.93
2019-02-14T10:09:00.833Z,51.45
2019-02-14T10:10:00.364Z,50.93
2019-02-14T10:11:00.313Z,50.91
2019-02-14T10:12:00.372Z,51.73
2019-02-14T10:13:00.325Z,51.22
2019-02-14T10:14:00.292Z,51.84
2019-02-14T10:15:00.321Z,51.42
2019-02-14T10:16:00.299Z,51.73
2019-02-14T10:17:00.252Z,51.84
2019-02-14T10:18:00.237Z,51.94
2019-02-14T10:19:00.217Z,51.53
2019-02-14T10:20:00.300Z,51.61
2019-02-14T10:21:00.198Z,52.25
2019-02-14T10:22:00.278Z,51.53
2019-02-14T10:23:02.658Z,51.71
2019-02-14T10:24:00.163Z,51.61
2019-02-14T10:25:00.329Z,51.81
2019-02-14T10:26:00.158Z,51.50
2019-02-14T10:27:00.140Z,52.01
2019-02-14T10:28:00.213Z,51.50
2019-02-14T10:29:00.126Z,51.61
2019-02-14T10:30:00.175Z,51.71
2019-02-14T10:31:02.657Z,51.81
2019-02-14T10:32:00.080Z,51.81
2019-02-14T10:33:00.061Z,51.68
2019-02-14T10:34:00.080Z,51.58
2019-02-14T10:35:00.055Z,51.50
2019-02-14T10:36:00.078Z,51.99
2019-02-14T10:37:00.017Z,51.40
2019-02-14T10:38:00.019Z,51.50
2019-02-14T10:39:00.000Z,51.79
2019-02-14T10:39:59.994Z,52.09
2019-02-14T10:41:00.661Z,52.73
2019-02-14T10:42:00.047Z,52.73
2019-02-14T10:42:59.953Z,54.17
2019-02-14T10:44:02.661Z,53.87
2019-02-14T10:44:59.952Z,53.56
2019-02-14T10:46:00.065Z,53.74
2019-02-14T10:46:59.909Z,53.02
2019-02-14T10:47:59.918Z,51.89
2019-02-14T10:49:02.654Z,50.66
2019-02-14T10:49:59.875Z,50.24
2019-02-14T10:50:59.875Z,50.04
2019-02-14T10:51:59.882Z,49.84
2019-02-14T10:52:59.859Z,49.63
2019-02-14T10:53:59.848Z,48.71
2019-02-14T10:54:59.836Z,49.40
2019-02-14T10:55:59.855Z,50.32
2019-02-14T10:56:59.808Z,49.81
2019-02-14T10:57:59.794Z,48.79
2019-02-14T10:58:59.786Z,49.09
2019-02-14T11:00:02.655Z,48.58
2019-02-14T11:00:59.759Z,47.66
2019-02-14T11:01:59.836Z,47.53
2019-02-14T11:02:59.780Z,47.53
2019-02-14T11:03:59.721Z,47.53
2019-02-14T11:04:59.717Z,47.74
2019-02-14T11:05:59.714Z,47.53
2019-02-14T11:06:59.687Z,47.76
2019-02-14T11:07:59.707Z,47.74
2019-02-14T11:08:59.682Z,47.24
2019-02-14T11:09:59.655Z,47.84
2019-02-14T11:10:59.649Z,46.91
2019-02-14T11:11:59.635Z,47.33
2019-02-14T11:12:59.628Z,47.12
2019-02-14T11:13:59.643Z,47.33
2019-02-14T11:14:59.610Z,47.22
2019-02-14T11:15:59.595Z,46.30
2019-02-14T11:16:59.639Z,47.74
2019-02-14T11:17:59.577Z,47.53
2019-02-14T11:18:59.576Z,47.33
2019-02-14T11:19:59.553Z,47.02
2019-02-14T11:20:59.541Z,47.22
2019-02-14T11:21:59.531Z,47.22
2019-02-14T11:22:59.567Z,47.12
2019-02-14T11:23:59.500Z,47.63
2019-02-14T11:24:59.502Z,47.12
2019-02-14T11:25:59.488Z,47.22
2019-02-14T11:27:00.143Z,47.02
2019-02-14T11:28:00.144Z,47.33
2019-02-14T11:28:59.484Z,46.28
2019-02-14T11:29:59.435Z,46.07
2019-02-14T11:30:59.439Z,45.76
2019-02-14T11:31:59.415Z,46.69
2019-02-14T11:32:59.439Z,45.45
2019-02-14T11:33:59.426Z,46.69
2019-02-14T11:34:59.388Z,46.79
2019-02-14T11:35:59.366Z,46.17
2019-02-14T11:36:59.372Z,46.38
2019-02-14T11:37:59.356Z,46.56
2019-02-14T11:38:59.402Z,46.25
2019-02-14T11:39:59.343Z,46.15
2019-02-14T11:40:59.317Z,45.54
2019-02-14T11:41:59.304Z,46.79
2019-02-14T11:42:59.296Z,46.28
2019-02-14T11:43:59.291Z,45.45
2019-02-14T11:44:59.322Z,45.36
2019-02-14T11:45:59.266Z,45.64
2019-02-14T11:46:59.251Z,45.54
2019-02-14T11:47:59.243Z,45.95
2019-02-14T11:48:59.261Z,45.64
2019-02-14T11:49:59.222Z,45.43
2019-02-14T11:50:59.242Z,45.45
2019-02-14T11:51:59.232Z,46.07
2019-02-14T11:52:59.182Z,45.36
2019-02-14T11:53:59.213Z,45.74
2019-02-14T11:54:59.174Z,45.64
2019-02-14T11:55:59.156Z,45.36
2019-02-14T11:56:59.138Z,45.45
2019-02-14T11:57:59.140Z,45.84
2019-02-14T11:58:59.120Z,45.64
2019-02-14T11:59:59.132Z,45.43
2019-02-14T12:00:59.094Z,45.64
2019-02-14T12:01:59.085Z,45.23
2019-02-14T12:02:59.081Z,46.87
2019-02-14T12:03:59.127Z,46.46
2019-02-14T12:04:59.055Z,45.42
2019-02-14T12:05:58.038Z,45.33
2019-02-14T12:06:59.028Z,45.83
2019-02-14T12:07:59.016Z,45.93
2019-02-14T12:09:00.424Z,45.10
2019-02-14T12:09:59.035Z,45.51
2019-02-14T12:10:58.994Z,45.72
2019-02-14T12:11:58.989Z,45.72
2019-02-14T12:12:58.964Z,45.51
2019-02-14T12:13:58.978Z,45.51
2019-02-14T12:14:58.936Z,45.42
2019-02-14T12:15:58.979Z,45.42
2019-02-14T12:16:58.916Z,45.93
2019-02-14T12:17:58.924Z,45.62
2019-02-14T12:18:58.894Z,45.42
2019-02-14T12:19:58.880Z,45.31
2019-02-14T12:20:58.874Z,45.42
2019-02-14T12:21:58.913Z,45.39
2019-02-14T12:22:58.863Z,46.01
2019-02-14T12:23:58.843Z,44.90
2019-02-14T12:24:58.828Z,45.21
2019-02-14T12:25:58.839Z,45.50
2019-02-14T12:27:00.681Z,45.60
2019-02-14T12:27:59.643Z,45.29
2019-02-14T12:28:58.782Z,45.39
2019-02-14T12:29:58.788Z,44.88
2019-02-14T12:30:58.823Z,45.72
2019-02-14T12:31:58.788Z,45.42
2019-02-14T12:32:58.784Z,45.51
2019-02-14T12:33:58.736Z,45.93
2019-02-14T12:34:58.748Z,45.50
2019-02-14T12:35:58.708Z,45.29
2019-02-14T12:36:58.699Z,45.39
2019-02-14T12:37:58.691Z,45.50
2019-02-14T12:38:58.686Z,45.60
2019-02-14T12:39:58.696Z,45.29
2019-02-14T12:40:58.675Z,45.60
2019-02-14T12:41:59.177Z,46.11
2019-02-14T12:42:58.634Z,45.29
2019-02-14T12:43:58.620Z,45.06
2019-02-14T12:44:58.625Z,44.76
2019-02-14T12:45:58.598Z,45.27
2019-02-14T12:46:58.586Z,44.45
2019-02-14T12:47:58.575Z,46.01
2019-02-14T12:48:58.565Z,45.47
2019-02-14T12:49:58.594Z,46.09
2019-02-14T12:50:58.540Z,45.06
2019-02-14T12:51:58.549Z,44.65
2019-02-14T12:52:58.545Z,45.06
2019-02-14T12:53:58.512Z,44.96
2019-02-14T12:54:58.558Z,45.57
2019-02-14T12:55:58.495Z,45.17
2019-02-14T12:56:58.477Z,45.57
2019-02-14T12:57:58.459Z,45.17
2019-02-14T12:58:58.455Z,45.15
2019-02-14T12:59:58.446Z,44.12
2019-02-14T13:00:58.467Z,44.64
2019-02-14T13:01:58.446Z,45.04
2019-02-14T13:02:58.418Z,44.94
2019-02-14T13:03:58.404Z,44.73
2019-02-14T13:04:58.392Z,45.04
2019-02-14T13:05:58.390Z,45.15
2019-02-14T13:06:58.410Z,45.02